createdAt,value
2023-03-07T00:00:31.895Z,17.70
2023-03-07T00:03:48.146Z,17.60
2023-03-07T00:06:50.032Z,18.80
2023-03-07T00:09:52.569Z,18.30
2023-03-07T00:12:54.455Z,19.60
2023-03-07T00:16:03.453Z,18.50
2023-03-07T00:19:07.461Z,20.60
2023-03-07T00:22:11.807Z,20.50
2023-03-07T00:25:14.965Z,19.60
2023-03-07T00:31:19.828Z,18.60
2023-03-07T00:34:21.847Z,19.40
2023-03-07T00:37:23.975Z,19.00
2023-03-07T00:40:25.869Z,20.00
2023-03-07T00:43:28.227Z,19.00
2023-03-07T00:49:31.945Z,18.00
2023-03-07T00:52:33.844Z,16.60
2023-03-07T00:55:35.838Z,18.50
2023-03-07T00:58:37.800Z,18.10
2023-03-07T01:01:39.713Z,17.80
2023-03-07T01:04:41.607Z,18.50
2023-03-07T01:07:44.616Z,18.10
2023-03-07T01:10:50.256Z,17.50
2023-03-07T01:13:55.649Z,18.10
2023-03-07T01:16:58.108Z,16.70
2023-03-07T01:20:00.351Z,18.20
2023-03-07T01:23:03.117Z,17.70
2023-03-07T01:26:05.066Z,16.60
2023-03-07T01:29:07.807Z,15.40
2023-03-07T01:32:10.928Z,16.50
2023-03-07T01:35:12.903Z,16.10
2023-03-07T01:38:14.835Z,16.10
2023-03-07T01:41:16.804Z,16.20
2023-03-07T01:44:27.256Z,16.40
2023-03-07T01:47:29.545Z,16.90
2023-03-07T01:50:31.468Z,17.60
2023-03-07T01:53:33.766Z,17.20
2023-03-07T01:56:37.872Z,17.40
2023-03-07T01:59:46.627Z,18.10
2023-03-07T02:03:06.648Z,17.10
2023-03-07T02:06:12.075Z,17.10
2023-03-07T02:09:18.333Z,17.60
2023-03-07T02:12:22.992Z,17.90
2023-03-07T02:15:25.259Z,17.90
2023-03-07T02:18:33.111Z,18.30
2023-03-07T02:22:11.827Z,18.10
2023-03-07T02:25:34.226Z,17.30
2023-03-07T02:28:36.569Z,18.00
2023-03-07T02:31:38.575Z,18.20
2023-03-07T02:34:40.465Z,18.50
2023-03-07T02:37:58.333Z,18.50
2023-03-07T02:41:00.584Z,18.90
2023-03-07T02:44:02.642Z,18.10
2023-03-07T02:50:11.136Z,17.60
2023-03-07T02:53:15.294Z,18.60
2023-03-07T02:56:17.344Z,19.30
2023-03-07T02:59:19.386Z,18.20
2023-03-07T03:02:21.293Z,17.60
2023-03-07T03:05:23.475Z,17.60
2023-03-07T03:08:26.950Z,18.40
2023-03-07T03:11:28.767Z,17.80
2023-03-07T03:14:31.814Z,17.70
2023-03-07T03:17:33.718Z,17.70
2023-03-07T03:20:38.859Z,17.20
2023-03-07T03:23:40.797Z,17.00
2023-03-07T03:26:43.705Z,18.40
2023-03-07T03:29:45.760Z,18.00
2023-03-07T03:32:47.820Z,16.80
2023-03-07T03:35:50.522Z,18.00
2023-03-07T03:38:57.481Z,16.90
2023-03-07T03:41:59.557Z,17.30
2023-03-07T03:45:01.584Z,16.90
2023-03-07T03:48:03.517Z,17.90
2023-03-07T03:51:16.404Z,16.30
2023-03-07T03:54:18.303Z,16.90
2023-03-07T03:57:20.164Z,16.30
2023-03-07T04:00:23.096Z,15.70
2023-03-07T04:03:24.964Z,16.00
2023-03-07T04:06:32.479Z,17.70
2023-03-07T04:09:34.393Z,17.10
2023-03-07T04:12:36.437Z,15.80
2023-03-07T04:15:39.051Z,15.40
2023-03-07T04:18:40.980Z,17.20
2023-03-07T04:21:43.889Z,16.40
2023-03-07T04:24:46.826Z,15.70
2023-03-07T04:27:48.749Z,16.60
2023-03-07T04:30:55.558Z,16.30
2023-03-07T04:33:58.343Z,15.90
2023-03-07T04:40:03.256Z,11.80
2023-03-07T04:43:05.338Z,17.00
2023-03-07T04:52:12.020Z,15.20
2023-03-07T04:55:14.453Z,17.70
2023-03-07T04:58:16.680Z,18.30
2023-03-07T05:07:23.797Z,15.90
2023-03-07T05:10:26.191Z,17.30
2023-03-07T05:16:30.493Z,14.90
2023-03-07T05:19:32.376Z,15.60
2023-03-07T05:22:34.354Z,15.80
2023-03-07T05:25:36.444Z,16.90
2023-03-07T05:28:38.405Z,18.50
2023-03-07T05:31:40.203Z,20.10
2023-03-07T05:34:43.927Z,19.80
2023-03-07T05:37:46.247Z,19.60
2023-03-07T05:40:48.219Z,20.10
2023-03-07T05:43:50.495Z,18.70
2023-03-07T05:46:52.484Z,19.10
2023-03-07T05:49:54.462Z,17.50
2023-03-07T05:52:56.447Z,16.30
2023-03-07T05:56:01.097Z,17.50
2023-03-07T05:59:06.988Z,17.40
2023-03-07T06:02:09.155Z,18.30
2023-03-07T06:05:11.155Z,19.40
2023-03-07T06:08:12.949Z,19.10
2023-03-07T06:11:14.907Z,22.30
2023-03-07T06:14:16.860Z,19.80
2023-03-07T06:17:18.802Z,19.30
2023-03-07T06:20:20.733Z,19.50
2023-03-07T06:23:22.981Z,20.30
2023-03-07T06:26:24.969Z,18.10
2023-03-07T06:29:28.067Z,20.60
2023-03-07T06:32:30.846Z,20.50
2023-03-07T06:35:34.161Z,19.20
2023-03-07T06:38:36.274Z,18.50
2023-03-07T06:41:38.211Z,23.80
2023-03-07T06:44:40.939Z,20.20
2023-03-07T06:47:43.761Z,20.10
2023-03-07T06:50:46.698Z,17.80
2023-03-07T06:53:48.561Z,19.20
2023-03-07T06:56:51.008Z,17.70
2023-03-07T06:59:55.061Z,18.00
2023-03-07T07:02:57.433Z,18.10
2023-03-07T07:05:59.487Z,19.80
2023-03-07T07:09:01.577Z,16.50
2023-03-07T07:12:07.554Z,17.50
2023-03-07T07:15:10.041Z,18.00
2023-03-07T07:21:15.420Z,14.80
2023-03-07T07:24:17.718Z,15.90
2023-03-07T07:27:19.569Z,17.00
2023-03-07T07:30:22.219Z,17.20
2023-03-07T07:33:24.213Z,16.50
2023-03-07T07:36:26.324Z,16.10
2023-03-07T07:39:28.354Z,16.20
2023-03-07T07:42:32.283Z,17.10
2023-03-07T07:45:50.438Z,16.10
2023-03-07T07:48:55.147Z,15.30
2023-03-07T07:51:57.551Z,15.40
2023-03-07T07:58:01.830Z,13.70
2023-03-07T08:01:19.687Z,15.40
2023-03-07T08:04:21.802Z,14.20
2023-03-07T08:07:23.694Z,13.80
2023-03-07T08:10:25.644Z,14.30
2023-03-07T08:13:29.922Z,15.30
2023-03-07T08:16:31.891Z,15.10
2023-03-07T08:19:33.892Z,14.20
2023-03-07T08:22:39.574Z,14.70
2023-03-07T08:25:41.592Z,14.60
2023-03-07T08:28:44.128Z,15.70
2023-03-07T08:31:48.165Z,15.00
2023-03-07T08:34:50.079Z,14.50
2023-03-07T08:37:57.595Z,14.70
2023-03-07T08:41:01.364Z,15.10
2023-03-07T08:44:03.460Z,13.70
2023-03-07T08:47:05.586Z,15.20
2023-03-07T08:50:08.605Z,14.10
2023-03-07T08:53:10.512Z,13.90
2023-03-07T08:56:16.033Z,13.70
2023-03-07T08:59:17.912Z,13.50
2023-03-07T09:02:19.973Z,13.80
2023-03-07T09:05:22.167Z,14.40
2023-03-07T09:08:24.462Z,15.80
2023-03-07T09:11:26.568Z,14.10
2023-03-07T09:14:28.804Z,12.40
2023-03-07T09:17:30.695Z,13.30
2023-03-07T09:20:32.661Z,12.90
2023-03-07T09:23:34.657Z,12.70
2023-03-07T09:26:36.918Z,12.70
2023-03-07T09:32:40.906Z,11.20
2023-03-07T09:35:43.140Z,10.50
2023-03-07T09:38:47.388Z,10.80
2023-03-07T09:42:00.384Z,9.80
2023-03-07T09:45:29.036Z,10.60
2023-03-07T09:48:47.391Z,11.20
2023-03-07T09:51:53.167Z,10.90
2023-03-07T09:55:04.759Z,9.70
2023-03-07T09:58:16.071Z,8.50
2023-03-07T10:01:23.638Z,10.40
2023-03-07T10:04:51.374Z,10.40
2023-03-07T10:07:54.660Z,9.70
2023-03-07T10:11:11.181Z,9.40
2023-03-07T10:14:37.204Z,9.20
2023-03-07T10:18:09.725Z,9.90
2023-03-07T10:21:30.985Z,9.00
2023-03-07T10:24:47.404Z,9.70
2023-03-07T10:27:54.972Z,9.40
2023-03-07T10:31:02.151Z,9.60
2023-03-07T10:34:37.701Z,8.90
2023-03-07T10:37:54.706Z,8.40
2023-03-07T10:41:06.642Z,9.00
2023-03-07T10:44:18.549Z,8.30
2023-03-07T10:47:23.800Z,9.40
2023-03-07T10:50:28.425Z,9.00
2023-03-07T10:53:34.853Z,9.20
2023-03-07T10:56:37.286Z,8.80
2023-03-07T10:59:43.053Z,8.90
2023-03-07T11:02:46.258Z,12.90
2023-03-07T11:05:49.237Z,11.20
2023-03-07T11:12:09.686Z,9.10
2023-03-07T11:15:20.926Z,9.90
2023-03-07T11:18:29.365Z,8.80
2023-03-07T11:21:35.321Z,10.10
2023-03-07T11:24:38.520Z,9.90
2023-03-07T11:27:53.791Z,9.20
2023-03-07T11:31:29.142Z,8.90
2023-03-07T11:34:37.236Z,9.20
2023-03-07T11:37:42.976Z,9.30
2023-03-07T11:40:55.868Z,9.00
2023-03-07T11:44:00.460Z,7.70
2023-03-07T11:47:08.512Z,8.00
2023-03-07T11:50:16.598Z,7.60
2023-03-07T11:53:37.056Z,8.30
2023-03-07T11:56:46.075Z,9.10
2023-03-07T11:59:58.947Z,8.60
2023-03-07T12:03:03.837Z,9.30
2023-03-07T12:06:17.951Z,8.60
2023-03-07T12:09:33.278Z,9.00
2023-03-07T12:12:56.017Z,8.50
2023-03-07T12:16:16.686Z,8.00
2023-03-07T12:19:42.979Z,8.20
2023-03-07T12:23:14.997Z,8.00
2023-03-07T12:26:19.826Z,8.80
2023-03-07T12:29:34.004Z,9.10
2023-03-07T12:32:37.693Z,8.70
2023-03-07T12:35:49.694Z,10.20
2023-03-07T12:39:02.688Z,9.20
2023-03-07T12:42:17.747Z,8.60
2023-03-07T12:45:24.419Z,8.70
2023-03-07T12:48:42.825Z,8.80
2023-03-07T12:51:48.778Z,8.80
2023-03-07T12:55:41.764Z,9.40
2023-03-07T13:02:31.829Z,8.70
2023-03-07T13:05:36.586Z,8.90
2023-03-07T13:08:40.196Z,9.00
2023-03-07T13:12:21.898Z,10.10
2023-03-07T13:15:25.260Z,11.50
2023-03-07T13:18:31.718Z,9.70
2023-03-07T13:21:33.939Z,9.20
2023-03-07T13:24:40.744Z,8.60
2023-03-07T13:27:51.491Z,9.10
2023-03-07T13:31:14.884Z,8.30
2023-03-07T13:34:45.910Z,7.70
2023-03-07T13:37:52.947Z,7.50
2023-03-07T13:41:00.015Z,8.00
2023-03-07T13:44:02.797Z,7.50
2023-03-07T13:47:42.930Z,8.10
2023-03-07T13:50:44.861Z,9.20
2023-03-07T13:53:54.284Z,8.70
2023-03-07T13:56:56.673Z,8.70
2023-03-07T14:00:00.246Z,9.20
2023-03-07T14:03:02.428Z,8.50
2023-03-07T14:06:28.144Z,8.70
2023-03-07T14:09:43.053Z,10.60
2023-03-07T14:13:14.935Z,9.60
2023-03-07T14:16:25.691Z,10.60
2023-03-07T14:19:54.741Z,10.90
2023-03-07T14:23:27.272Z,10.00
2023-03-07T14:26:32.808Z,10.40
2023-03-07T14:29:34.720Z,11.10
2023-03-07T14:32:40.227Z,10.10
2023-03-07T14:35:44.406Z,9.20
2023-03-07T14:38:50.114Z,10.30
2023-03-07T14:42:00.994Z,9.90
2023-03-07T14:45:41.063Z,11.10
2023-03-07T14:49:06.444Z,10.90
2023-03-07T14:52:21.508Z,11.50
2023-03-07T14:55:38.247Z,11.70
2023-03-07T14:58:53.297Z,11.50
2023-03-07T15:01:56.953Z,11.60
2023-03-07T15:04:58.945Z,11.40
2023-03-07T15:08:01.140Z,10.70
2023-03-07T15:11:43.807Z,10.10
2023-03-07T15:14:51.796Z,10.80
2023-03-07T15:17:57.304Z,11.40
2023-03-07T15:21:01.087Z,10.90
2023-03-07T15:24:03.273Z,10.00
2023-03-07T15:27:09.799Z,10.90
2023-03-07T15:30:24.487Z,11.30
2023-03-07T15:33:30.100Z,11.00
2023-03-07T15:36:32.723Z,10.10
2023-03-07T15:39:35.051Z,12.10
2023-03-07T15:42:55.057Z,10.80
2023-03-07T15:46:14.894Z,10.80
2023-03-07T15:49:38.556Z,11.00
2023-03-07T15:52:41.104Z,11.70
2023-03-07T15:55:53.076Z,11.60
2023-03-07T15:58:59.674Z,12.40
2023-03-07T16:02:33.332Z,13.50
2023-03-07T16:05:37.119Z,11.10
2023-03-07T16:08:38.975Z,13.00
2023-03-07T16:11:41.616Z,12.40
2023-03-07T16:14:46.126Z,11.90
2023-03-07T16:17:52.556Z,11.80
2023-03-07T16:20:55.042Z,11.60
2023-03-07T16:23:56.908Z,11.20
2023-03-07T16:26:59.004Z,12.30
2023-03-07T16:30:01.002Z,12.50
2023-03-07T16:33:02.915Z,12.00
2023-03-07T16:36:05.275Z,14.20
2023-03-07T16:39:07.141Z,12.90
2023-03-07T16:42:19.440Z,13.30
2023-03-07T16:45:30.301Z,14.10
2023-03-07T16:48:32.811Z,14.00
2023-03-07T16:51:34.879Z,13.40
2023-03-07T16:54:36.702Z,14.80
2023-03-07T16:57:39.611Z,14.10
2023-03-07T17:00:41.977Z,15.90
2023-03-07T17:03:43.937Z,14.20
2023-03-07T17:06:48.745Z,14.80
2023-03-07T17:09:54.429Z,15.00
2023-03-07T17:12:57.464Z,15.20
2023-03-07T17:15:59.393Z,15.30
2023-03-07T17:19:01.272Z,18.60
2023-03-07T17:22:03.151Z,16.20
2023-03-07T17:25:05.548Z,15.70
2023-03-07T17:28:12.812Z,16.20
2023-03-07T17:31:14.668Z,16.10
2023-03-07T17:34:29.596Z,16.10
2023-03-07T17:37:31.521Z,16.90
2023-03-07T17:40:33.493Z,17.50
2023-03-07T17:43:35.547Z,18.40
2023-03-07T17:46:37.445Z,20.60
2023-03-07T17:49:39.413Z,16.70
2023-03-07T17:52:41.292Z,17.20
2023-03-07T17:55:43.765Z,19.00
2023-03-07T17:58:45.698Z,20.80
2023-03-07T18:01:47.574Z,22.10
2023-03-07T18:04:50.934Z,21.50
2023-03-07T18:07:53.192Z,19.50
2023-03-07T18:14:03.117Z,18.90
2023-03-07T18:17:04.979Z,17.50
2023-03-07T18:20:10.452Z,18.90
2023-03-07T18:23:12.453Z,20.10
2023-03-07T18:26:15.344Z,21.40
2023-03-07T18:29:17.497Z,21.10
2023-03-07T18:32:19.412Z,19.90
2023-03-07T18:35:22.776Z,19.20
2023-03-07T18:38:25.360Z,17.20
2023-03-07T18:41:27.672Z,22.50
2023-03-07T18:47:31.849Z,14.90
2023-03-07T18:50:33.826Z,15.10
2023-03-07T18:53:36.890Z,15.60
2023-03-07T18:56:38.828Z,14.60
2023-03-07T18:59:40.795Z,15.60
2023-03-07T19:02:43.101Z,15.30
2023-03-07T19:05:48.110Z,15.50
2023-03-07T19:08:50.590Z,16.50
2023-03-07T19:11:52.785Z,15.50
2023-03-07T19:14:55.171Z,15.70
2023-03-07T19:17:57.075Z,14.60
2023-03-07T19:20:59.019Z,14.60
2023-03-07T19:24:03.837Z,14.80
2023-03-07T19:27:05.941Z,14.50
2023-03-07T19:30:10.613Z,14.10
2023-03-07T19:33:12.432Z,23.70
2023-03-07T19:36:27.307Z,15.30
2023-03-07T19:39:29.388Z,15.40
2023-03-07T19:42:31.221Z,14.30
2023-03-07T19:45:33.548Z,15.20
2023-03-07T19:51:37.185Z,10.80
2023-03-07T19:54:39.470Z,14.20
2023-03-07T19:57:41.360Z,14.00
2023-03-07T20:00:45.889Z,14.80
2023-03-07T20:03:48.550Z,13.50
2023-03-07T20:06:50.515Z,13.50
2023-03-07T20:09:52.373Z,13.80
2023-03-07T20:12:54.237Z,14.50
2023-03-07T20:15:56.076Z,13.30
2023-03-07T20:19:00.673Z,14.10
2023-03-07T20:22:04.247Z,14.40
2023-03-07T20:25:06.627Z,13.90
2023-03-07T20:28:09.280Z,13.10
2023-03-07T20:31:12.468Z,13.00
2023-03-07T20:34:14.333Z,13.20
2023-03-07T20:37:16.180Z,12.90
2023-03-07T20:40:18.373Z,14.40
2023-03-07T20:43:20.233Z,13.30
2023-03-07T20:46:22.402Z,12.40
2023-03-07T20:49:24.214Z,12.50
2023-03-07T20:52:26.120Z,12.10
2023-03-07T20:55:29.008Z,12.00
2023-03-07T20:58:31.880Z,14.10
2023-03-07T21:01:34.478Z,12.50
2023-03-07T21:04:36.682Z,13.00
2023-03-07T21:07:38.554Z,13.30
2023-03-07T21:10:40.397Z,12.30
2023-03-07T21:13:44.693Z,13.10
2023-03-07T21:16:47.182Z,12.90
2023-03-07T21:19:49.013Z,13.20
2023-03-07T21:22:50.886Z,13.30
2023-03-07T21:25:55.083Z,13.70
2023-03-07T21:28:57.993Z,13.40
2023-03-07T21:32:01.330Z,12.20
2023-03-07T21:35:03.605Z,12.80
2023-03-07T21:38:05.841Z,13.70
2023-03-07T21:44:09.957Z,12.60
2023-03-07T21:47:12.459Z,13.60
2023-03-07T21:50:14.373Z,13.30
2023-03-07T21:53:17.376Z,14.90
2023-03-07T21:56:19.244Z,14.40
2023-03-07T21:59:21.532Z,14.20
2023-03-07T22:05:25.351Z,13.70
2023-03-07T22:08:27.141Z,13.40
2023-03-07T22:11:28.984Z,13.10
2023-03-07T22:14:30.932Z,13.30
2023-03-07T22:17:33.215Z,12.20
2023-03-07T22:20:37.468Z,12.60
2023-03-07T22:23:39.520Z,13.80
2023-03-07T22:26:41.384Z,13.10
2023-03-07T22:29:43.329Z,12.50
2023-03-07T22:32:45.182Z,13.00
2023-03-07T22:35:55.897Z,12.70
2023-03-07T22:38:57.763Z,13.10
2023-03-07T22:41:59.851Z,13.40
2023-03-07T22:45:01.690Z,13.20
2023-03-07T22:48:03.653Z,13.50
2023-03-07T22:51:12.388Z,13.00
2023-03-07T22:54:14.281Z,12.70
2023-03-07T22:57:16.136Z,12.60
2023-03-07T23:00:18.449Z,13.10
2023-03-07T23:06:23.972Z,13.70
2023-03-07T23:09:25.836Z,13.20
2023-03-07T23:12:27.722Z,13.70
2023-03-07T23:15:29.694Z,13.60
2023-03-07T23:18:31.616Z,12.90
2023-03-07T23:21:34.030Z,12.50
2023-03-07T23:27:37.530Z,10.00
2023-03-07T23:30:40.227Z,12.60
2023-03-07T23:33:42.123Z,13.60
2023-03-07T23:36:44.923Z,13.50
2023-03-07T23:39:46.749Z,13.70
2023-03-07T23:42:48.575Z,13.80
2023-03-07T23:45:50.395Z,13.70
2023-03-07T23:48:53.388Z,14.40
2023-03-07T23:51:55.506Z,13.50
2023-03-07T23:54:57.279Z,13.70
2023-03-07T23:57:59.131Z,13.70
